sensor_id;sensor_type;location;lat;lon;timestamp;temperature;humidity
40622;DHT22;26324;52.040;11.528;2024-01-10T00:01:31;-3269.00;77.80
40622;DHT22;26324;52.040;11.528;2024-01-10T00:03:59;-3269.20;77.80
40622;DHT22;26324;52.040;11.528;2024-01-10T00:06:26;-3269.20;77.70
40622;DHT22;26324;52.040;11.528;2024-01-10T00:08:53;-3269.20;77.80
40622;DHT22;26324;52.040;11.528;2024-01-10T00:11:21;-3269.10;77.70
40622;DHT22;26324;52.040;11.528;2024-01-10T00:13:48;-3269.20;77.70
40622;DHT22;26324;52.040;11.528;2024-01-10T00:16:15;-3269.20;77.80
40622;DHT22;26324;52.040;11.528;2024-01-10T00:18:43;-3269.20;77.90
40622;DHT22;26324;52.040;11.528;2024-01-10T00:21:11;-3269.20;77.90
40622;DHT22;26324;52.040;11.528;2024-01-10T00:23:38;-3269.10;77.50
40622;DHT22;26324;52.040;11.528;2024-01-10T00:26:05;-3269.00;77.50
40622;DHT22;26324;52.040;11.528;2024-01-10T00:28:33;-3269.00;78.10
40622;DHT22;26324;52.040;11.528;2024-01-10T00:31:00;-3269.00;78.60
40622;DHT22;26324;52.040;11.528;2024-01-10T00:33:28;-3268.90;78.00
40622;DHT22;26324;52.040;11.528;2024-01-10T00:35:55;-3268.90;78.30
40622;DHT22;26324;52.040;11.528;2024-01-10T00:38:22;-3268.90;78.10
40622;DHT22;26324;52.040;11.528;2024-01-10T00:40:50;-3269.10;77.80
40622;DHT22;26324;52.040;11.528;2024-01-10T00:43:17;-3269.20;77.60
40622;DHT22;26324;52.040;11.528;2024-01-10T00:45:44;-3269.20;77.50
40622;DHT22;26324;52.040;11.528;2024-01-10T00:48:12;-3269.10;77.40
40622;DHT22;26324;52.040;11.528;2024-01-10T00:50:40;-3269.10;77.70
40622;DHT22;26324;52.040;11.528;2024-01-10T00:53:07;-3269.00;77.50
40622;DHT22;26324;52.040;11.528;2024-01-10T00:55:34;-3268.90;77.40
40622;DHT22;26324;52.040;11.528;2024-01-10T00:58:02;-3268.90;78.00
40622;DHT22;26324;52.040;11.528;2024-01-10T01:00:29;-3269.00;78.00
40622;DHT22;26324;52.040;11.528;2024-01-10T01:02:57;-3268.90;77.70
40622;DHT22;26324;52.040;11.528;2024-01-10T01:05:24;-3268.90;78.10
40622;DHT22;26324;52.040;11.528;2024-01-10T01:07:51;-3269.00;78.30
40622;DHT22;26324;52.040;11.528;2024-01-10T01:10:19;-3269.00;78.30
40622;DHT22;26324;52.040;11.528;2024-01-10T01:12:46;-3269.00;78.30
40622;DHT22;26324;52.040;11.528;2024-01-10T01:15:13;-3268.90;78.00
40622;DHT22;26324;52.040;11.528;2024-01-10T01:17:41;-3269.00;78.20
40622;DHT22;26324;52.040;11.528;2024-01-10T01:20:09;-3268.90;77.70
40622;DHT22;26324;52.040;11.528;2024-01-10T01:22:36;-3269.00;77.90
40622;DHT22;26324;52.040;11.528;2024-01-10T01:25:04;-3268.90;77.40
40622;DHT22;26324;52.040;11.528;2024-01-10T01:27:31;-3268.90;77.50
40622;DHT22;26324;52.040;11.528;2024-01-10T01:29:58;-3268.80;77.60
40622;DHT22;26324;52.040;11.528;2024-01-10T01:32:26;-3268.70;77.70
40622;DHT22;26324;52.040;11.528;2024-01-10T01:34:54;-3268.70;77.80
40622;DHT22;26324;52.040;11.528;2024-01-10T01:37:21;-3268.80;77.70
40622;DHT22;26324;52.040;11.528;2024-01-10T01:39:48;-3268.70;77.70
40622;DHT22;26324;52.040;11.528;2024-01-10T01:42:16;-3268.60;77.50
40622;DHT22;26324;52.040;11.528;2024-01-10T01:44:44;-3268.60;77.90
40622;DHT22;26324;52.040;11.528;2024-01-10T01:47:11;-3268.60;78.00
40622;DHT22;26324;52.040;11.528;2024-01-10T01:49:39;-3268.60;78.20
40622;DHT22;26324;52.040;11.528;2024-01-10T01:52:06;-3268.70;78.40
40622;DHT22;26324;52.040;11.528;2024-01-10T01:54:34;-3268.80;78.10
40622;DHT22;26324;52.040;11.528;2024-01-10T01:57:02;-3268.70;77.80
40622;DHT22;26324;52.040;11.528;2024-01-10T01:59:30;-3268.80;77.80
40622;DHT22;26324;52.040;11.528;2024-01-10T02:01:58;-3268.90;77.30
40622;DHT22;26324;52.040;11.528;2024-01-10T02:04:30;-3268.90;77.10
40622;DHT22;26324;52.040;11.528;2024-01-10T02:06:57;-3268.90;77.40
40622;DHT22;26324;52.040;11.528;2024-01-10T02:09:25;-3268.90;77.40
40622;DHT22;26324;52.040;11.528;2024-01-10T02:11:52;-3268.80;77.40
40622;DHT22;26324;52.040;11.528;2024-01-10T02:14:21;-3268.70;77.60
40622;DHT22;26324;52.040;11.528;2024-01-10T02:16:48;-3268.70;77.40
40622;DHT22;26324;52.040;11.528;2024-01-10T02:19:22;-3268.70;77.30
40622;DHT22;26324;52.040;11.528;2024-01-10T02:21:50;-3268.50;77.80
40622;DHT22;26324;52.040;11.528;2024-01-10T02:24:17;-3268.50;78.10
40622;DHT22;26324;52.040;11.528;2024-01-10T02:26:45;-3268.40;78.10
40622;DHT22;26324;52.040;11.528;2024-01-10T02:29:12;-3268.40;78.60
40622;DHT22;26324;52.040;11.528;2024-01-10T02:31:39;-3268.40;79.00
40622;DHT22;26324;52.040;11.528;2024-01-10T02:34:07;-3268.50;78.90
40622;DHT22;26324;52.040;11.528;2024-01-10T02:36:34;-3268.60;78.70
40622;DHT22;26324;52.040;11.528;2024-01-10T02:39:01;-3268.60;78.70
40622;DHT22;26324;52.040;11.528;2024-01-10T02:41:29;-3268.60;78.60
40622;DHT22;26324;52.040;11.528;2024-01-10T02:43:56;-3268.50;78.70
40622;DHT22;26324;52.040;11.528;2024-01-10T02:46:26;-3268.40;78.70
40622;DHT22;26324;52.040;11.528;2024-01-10T02:48:54;-3268.50;79.20
40622;DHT22;26324;52.040;11.528;2024-01-10T02:51:26;-3268.50;79.40
40622;DHT22;26324;52.040;11.528;2024-01-10T02:53:54;-3268.50;79.50
40622;DHT22;26324;52.040;11.528;2024-01-10T02:56:21;-3268.50;79.00
40622;DHT22;26324;52.040;11.528;2024-01-10T02:58:48;-3268.60;79.20
40622;DHT22;26324;52.040;11.528;2024-01-10T03:01:16;-3268.60;79.20
40622;DHT22;26324;52.040;11.528;2024-01-10T03:03:43;-3268.60;79.10
40622;DHT22;26324;52.040;11.528;2024-01-10T03:06:11;-3268.60;79.20
40622;DHT22;26324;52.040;11.528;2024-01-10T03:08:38;-3268.50;79.10
40622;DHT22;26324;52.040;11.528;2024-01-10T03:11:05;-3268.50;79.10
40622;DHT22;26324;52.040;11.528;2024-01-10T03:13:33;-3268.40;79.00
40622;DHT22;26324;52.040;11.528;2024-01-10T03:16:00;-3268.60;79.70
40622;DHT22;26324;52.040;11.528;2024-01-10T03:18:27;-3268.50;79.40
40622;DHT22;26324;52.040;11.528;2024-01-10T03:20:55;-3268.60;79.20
40622;DHT22;26324;52.040;11.528;2024-01-10T03:23:23;-3268.50;79.10
40622;DHT22;26324;52.040;11.528;2024-01-10T03:25:50;-3268.40;79.50
40622;DHT22;26324;52.040;11.528;2024-01-10T03:28:17;-3268.30;79.40
40622;DHT22;26324;52.040;11.528;2024-01-10T03:30:45;-3268.30;79.70
40622;DHT22;26324;52.040;11.528;2024-01-10T03:33:12;-3268.30;80.20
40622;DHT22;26324;52.040;11.528;2024-01-10T03:35:40;-3268.30;80.10
40622;DHT22;26324;52.040;11.528;2024-01-10T03:38:07;-3268.40;80.10
40622;DHT22;26324;52.040;11.528;2024-01-10T03:40:35;-3268.40;80.10
40622;DHT22;26324;52.040;11.528;2024-01-10T03:43:02;-3268.40;80.10
40622;DHT22;26324;52.040;11.528;2024-01-10T03:45:29;-3268.40;79.90
40622;DHT22;26324;52.040;11.528;2024-01-10T03:47:57;-3268.50;79.70
40622;DHT22;26324;52.040;11.528;2024-01-10T03:50:24;-3268.50;79.70
40622;DHT22;26324;52.040;11.528;2024-01-10T03:52:51;-3268.50;79.30
40622;DHT22;26324;52.040;11.528;2024-01-10T03:55:19;-3268.50;79.10
40622;DHT22;26324;52.040;11.528;2024-01-10T03:57:46;-3268.40;78.60
40622;DHT22;26324;52.040;11.528;2024-01-10T04:00:14;-3268.40;79.10
40622;DHT22;26324;52.040;11.528;2024-01-10T04:02:41;-3268.50;79.30
40622;DHT22;26324;52.040;11.528;2024-01-10T04:05:09;-3268.40;79.20
40622;DHT22;26324;52.040;11.528;2024-01-10T04:07:40;-3268.40;79.20
40622;DHT22;26324;52.040;11.528;2024-01-10T04:10:12;-3268.40;79.70
40622;DHT22;26324;52.040;11.528;2024-01-10T04:12:42;-3268.40;79.40
40622;DHT22;26324;52.040;11.528;2024-01-10T04:15:10;-3268.40;78.90
40622;DHT22;26324;52.040;11.528;2024-01-10T04:17:38;-3268.40;79.00
40622;DHT22;26324;52.040;11.528;2024-01-10T04:20:06;-3268.40;79.20
40622;DHT22;26324;52.040;11.528;2024-01-10T04:22:34;-3268.40;78.90
40622;DHT22;26324;52.040;11.528;2024-01-10T04:25:03;-3268.30;78.80
40622;DHT22;26324;52.040;11.528;2024-01-10T04:27:32;-3268.40;79.10
40622;DHT22;26324;52.040;11.528;2024-01-10T04:29:59;-3268.40;79.00
40622;DHT22;26324;52.040;11.528;2024-01-10T04:32:26;-3268.40;78.90
40622;DHT22;26324;52.040;11.528;2024-01-10T04:34:54;-3268.40;79.00
40622;DHT22;26324;52.040;11.528;2024-01-10T04:37:22;-3268.40;79.30
40622;DHT22;26324;52.040;11.528;2024-01-10T04:39:49;-3268.30;79.10
40622;DHT22;26324;52.040;11.528;2024-01-10T04:42:17;-3268.20;78.70
40622;DHT22;26324;52.040;11.528;2024-01-10T04:44:44;-3268.20;78.80
40622;DHT22;26324;52.040;11.528;2024-01-10T04:47:11;-3268.20;78.80
40622;DHT22;26324;52.040;11.528;2024-01-10T04:49:39;-3268.10;78.60
40622;DHT22;26324;52.040;11.528;2024-01-10T04:52:06;-3268.10;78.90
40622;DHT22;26324;52.040;11.528;2024-01-10T04:54:34;-3268.10;79.20
40622;DHT22;26324;52.040;11.528;2024-01-10T04:57:01;-3268.10;79.60
40622;DHT22;26324;52.040;11.528;2024-01-10T04:59:29;-3268.10;79.40
40622;DHT22;26324;52.040;11.528;2024-01-10T05:01:56;-3268.10;79.70
40622;DHT22;26324;52.040;11.528;2024-01-10T05:04:23;-3268.10;80.00
40622;DHT22;26324;52.040;11.528;2024-01-10T05:06:51;-3268.20;80.00
40622;DHT22;26324;52.040;11.528;2024-01-10T05:09:18;-3268.30;79.60
40622;DHT22;26324;52.040;11.528;2024-01-10T05:11:46;-3268.20;79.30
40622;DHT22;26324;52.040;11.528;2024-01-10T05:14:18;-3268.10;79.40
40622;DHT22;26324;52.040;11.528;2024-01-10T05:16:49;-3268.10;79.70
40622;DHT22;26324;52.040;11.528;2024-01-10T05:19:16;-3268.00;79.70
40622;DHT22;26324;52.040;11.528;2024-01-10T05:21:44;-3268.00;80.00
40622;DHT22;26324;52.040;11.528;2024-01-10T05:24:11;-3268.00;80.10
40622;DHT22;26324;52.040;11.528;2024-01-10T05:26:39;-3268.10;80.30
40622;DHT22;26324;52.040;11.528;2024-01-10T05:29:07;-3268.00;79.70
40622;DHT22;26324;52.040;11.528;2024-01-10T05:31:35;-3267.90;79.50
40622;DHT22;26324;52.040;11.528;2024-01-10T05:34:02;-3267.90;80.00
40622;DHT22;26324;52.040;11.528;2024-01-10T05:36:29;-3268.00;80.10
40622;DHT22;26324;52.040;11.528;2024-01-10T05:38:57;-3268.10;79.80
40622;DHT22;26324;52.040;11.528;2024-01-10T05:41:24;-3268.20;79.70
40622;DHT22;26324;52.040;11.528;2024-01-10T05:43:52;-3268.10;79.50
40622;DHT22;26324;52.040;11.528;2024-01-10T05:46:19;-3268.00;79.60
40622;DHT22;26324;52.040;11.528;2024-01-10T05:48:47;-3268.00;79.70
40622;DHT22;26324;52.040;11.528;2024-01-10T05:51:15;-3268.10;79.60
40622;DHT22;26324;52.040;11.528;2024-01-10T05:53:42;-3268.00;79.20
40622;DHT22;26324;52.040;11.528;2024-01-10T05:56:10;-3268.00;79.30
40622;DHT22;26324;52.040;11.528;2024-01-10T05:58:37;-3268.10;79.20
40622;DHT22;26324;52.040;11.528;2024-01-10T06:01:05;-3268.00;78.70
40622;DHT22;26324;52.040;11.528;2024-01-10T06:03:36;-3267.90;78.90
40622;DHT22;26324;52.040;11.528;2024-01-10T06:06:04;-3268.00;79.10
40622;DHT22;26324;52.040;11.528;2024-01-10T06:08:31;-3268.00;79.00
40622;DHT22;26324;52.040;11.528;2024-01-10T06:10:59;-3268.00;79.20
40622;DHT22;26324;52.040;11.528;2024-01-10T06:13:31;-3268.00;79.10
40622;DHT22;26324;52.040;11.528;2024-01-10T06:16:15;-3267.90;78.90
40622;DHT22;26324;52.040;11.528;2024-01-10T06:18:44;-3267.80;79.10
40622;DHT22;26324;52.040;11.528;2024-01-10T06:21:11;-3267.80;79.10
40622;DHT22;26324;52.040;11.528;2024-01-10T06:23:38;-3267.90;79.00
40622;DHT22;26324;52.040;11.528;2024-01-10T06:26:06;-3267.80;79.10
40622;DHT22;26324;52.040;11.528;2024-01-10T06:28:33;-3267.90;79.30
40622;DHT22;26324;52.040;11.528;2024-01-10T06:31:01;-3268.00;78.90
40622;DHT22;26324;52.040;11.528;2024-01-10T06:33:29;-3267.90;78.80
40622;DHT22;26324;52.040;11.528;2024-01-10T06:35:56;-3267.80;78.80
40622;DHT22;26324;52.040;11.528;2024-01-10T06:38:24;-3267.80;79.00
40622;DHT22;26324;52.040;11.528;2024-01-10T06:40:51;-3267.90;78.90
40622;DHT22;26324;52.040;11.528;2024-01-10T06:43:19;-3267.90;78.80
40622;DHT22;26324;52.040;11.528;2024-01-10T06:45:46;-3267.90;78.70
40622;DHT22;26324;52.040;11.528;2024-01-10T06:48:15;-3267.80;78.80
40622;DHT22;26324;52.040;11.528;2024-01-10T06:50:42;-3267.70;78.70
40622;DHT22;26324;52.040;11.528;2024-01-10T06:53:11;-3267.80;79.00
40622;DHT22;26324;52.040;11.528;2024-01-10T06:55:38;-3267.90;78.70
40622;DHT22;26324;52.040;11.528;2024-01-10T06:58:06;-3267.80;78.70
40622;DHT22;26324;52.040;11.528;2024-01-10T07:00:33;-3267.90;78.50
40622;DHT22;26324;52.040;11.528;2024-01-10T07:03:01;-3267.90;78.00
40622;DHT22;26324;52.040;11.528;2024-01-10T07:05:29;-3267.70;77.90
40622;DHT22;26324;52.040;11.528;2024-01-10T07:07:59;-3267.70;78.60
40622;DHT22;26324;52.040;11.528;2024-01-10T07:10:30;-3267.60;78.70
40622;DHT22;26324;52.040;11.528;2024-01-10T07:12:57;-3267.60;79.00
40622;DHT22;26324;52.040;11.528;2024-01-10T07:15:24;-3267.60;79.10
40622;DHT22;26324;52.040;11.528;2024-01-10T07:17:52;-3267.70;79.60
40622;DHT22;26324;52.040;11.528;2024-01-10T07:20:19;-3267.70;79.50
40622;DHT22;26324;52.040;11.528;2024-01-10T07:22:47;-3267.70;79.50
40622;DHT22;26324;52.040;11.528;2024-01-10T07:25:16;-3267.70;79.60
40622;DHT22;26324;52.040;11.528;2024-01-10T07:27:44;-3267.80;79.30
40622;DHT22;26324;52.040;11.528;2024-01-10T07:30:12;-3267.90;79.20
40622;DHT22;26324;52.040;11.528;2024-01-10T07:32:43;-3267.90;78.60
40622;DHT22;26324;52.040;11.528;2024-01-10T07:35:12;-3267.90;78.70
40622;DHT22;26324;52.040;11.528;2024-01-10T07:37:41;-3268.00;78.70
40622;DHT22;26324;52.040;11.528;2024-01-10T07:40:10;-3268.00;78.50
40622;DHT22;26324;52.040;11.528;2024-01-10T07:42:43;-3267.90;78.50
40622;DHT22;26324;52.040;11.528;2024-01-10T07:45:10;-3267.90;79.10
40622;DHT22;26324;52.040;11.528;2024-01-10T07:47:38;-3267.80;78.80
40622;DHT22;26324;52.040;11.528;2024-01-10T07:50:10;-3267.90;79.20
40622;DHT22;26324;52.040;11.528;2024-01-10T07:52:40;-3268.00;79.30
40622;DHT22;26324;52.040;11.528;2024-01-10T07:55:08;-3268.00;78.80
40622;DHT22;26324;52.040;11.528;2024-01-10T07:57:35;-3268.00;79.10
40622;DHT22;26324;52.040;11.528;2024-01-10T08:00:07;-3268.10;79.10
40622;DHT22;26324;52.040;11.528;2024-01-10T08:02:38;-3268.20;78.80
40622;DHT22;26324;52.040;11.528;2024-01-10T08:05:07;-3268.00;78.70
40622;DHT22;26324;52.040;11.528;2024-01-10T08:07:38;-3268.20;79.30
40622;DHT22;26324;52.040;11.528;2024-01-10T08:10:07;-3268.40;79.40
40622;DHT22;26324;52.040;11.528;2024-01-10T08:12:37;-3268.50;79.00
40622;DHT22;26324;52.040;11.528;2024-01-10T08:15:06;-3268.60;78.90
40622;DHT22;26324;52.040;11.528;2024-01-10T08:17:33;-3268.60;78.80
40622;DHT22;26324;52.040;11.528;2024-01-10T08:20:02;-3268.70;79.00
40622;DHT22;26324;52.040;11.528;2024-01-10T08:22:31;-3268.80;78.90
40622;DHT22;26324;52.040;11.528;2024-01-10T08:24:58;-3268.90;78.70
40622;DHT22;26324;52.040;11.528;2024-01-10T08:27:26;-3268.90;78.90
40622;DHT22;26324;52.040;11.528;2024-01-10T08:29:54;-3269.00;79.00
40622;DHT22;26324;52.040;11.528;2024-01-10T08:32:21;-3269.00;79.00
40622;DHT22;26324;52.040;11.528;2024-01-10T08:34:49;-3269.00;79.00
40622;DHT22;26324;52.040;11.528;2024-01-10T08:37:17;-3269.20;79.30
40622;DHT22;26324;52.040;11.528;2024-01-10T08:39:44;-3269.30;79.10
40622;DHT22;26324;52.040;11.528;2024-01-10T08:42:12;-3269.50;79.30
40622;DHT22;26324;52.040;11.528;2024-01-10T08:44:39;-3269.70;79.50
40622;DHT22;26324;52.040;11.528;2024-01-10T08:47:06;-3269.80;79.50
40622;DHT22;26324;52.040;11.528;2024-01-10T08:49:34;-3269.90;79.30
40622;DHT22;26324;52.040;11.528;2024-01-10T08:52:01;-3270.00;78.90
40622;DHT22;26324;52.040;11.528;2024-01-10T08:54:28;-3270.20;79.00
40622;DHT22;26324;52.040;11.528;2024-01-10T08:56:56;-3270.20;78.60
40622;DHT22;26324;52.040;11.528;2024-01-10T08:59:24;-3270.40;78.80
40622;DHT22;26324;52.040;11.528;2024-01-10T09:01:51;-3270.50;78.70
40622;DHT22;26324;52.040;11.528;2024-01-10T09:04:19;-3270.60;78.50
40622;DHT22;26324;52.040;11.528;2024-01-10T09:06:47;-3270.60;78.10
40622;DHT22;26324;52.040;11.528;2024-01-10T09:09:14;-3270.70;78.20
40622;DHT22;26324;52.040;11.528;2024-01-10T09:11:42;-3270.80;77.90
40622;DHT22;26324;52.040;11.528;2024-01-10T09:14:12;-3271.00;77.00
40622;DHT22;26324;52.040;11.528;2024-01-10T09:16:40;-3271.10;76.80
40622;DHT22;26324;52.040;11.528;2024-01-10T09:19:07;-3271.30;76.40
40622;DHT22;26324;52.040;11.528;2024-01-10T09:21:39;-3271.40;76.40
40622;DHT22;26324;52.040;11.528;2024-01-10T09:24:07;-3271.50;76.30
40622;DHT22;26324;52.040;11.528;2024-01-10T09:26:52;-3271.70;76.70
40622;DHT22;26324;52.040;11.528;2024-01-10T09:29:21;-3271.90;76.40
40622;DHT22;26324;52.040;11.528;2024-01-10T09:31:49;-3271.90;75.70
40622;DHT22;26324;52.040;11.528;2024-01-10T09:34:16;-3272.00;75.70
40622;DHT22;26324;52.040;11.528;2024-01-10T09:36:44;-3272.10;75.00
40622;DHT22;26324;52.040;11.528;2024-01-10T09:39:11;-3272.40;75.00
40622;DHT22;26324;52.040;11.528;2024-01-10T09:41:46;-3272.50;74.20
40622;DHT22;26324;52.040;11.528;2024-01-10T09:44:15;-3272.60;74.30
40622;DHT22;26324;52.040;11.528;2024-01-10T09:46:51;-3272.70;73.60
40622;DHT22;26324;52.040;11.528;2024-01-10T09:49:19;-3272.90;73.10
40622;DHT22;26324;52.040;11.528;2024-01-10T09:51:53;-3273.10;73.50
40622;DHT22;26324;52.040;11.528;2024-01-10T09:54:26;-3273.40;72.60
40622;DHT22;26324;52.040;11.528;2024-01-10T09:56:53;-3273.70;71.40
40622;DHT22;26324;52.040;11.528;2024-01-10T09:59:21;-3273.90;71.00
40622;DHT22;26324;52.040;11.528;2024-01-10T10:01:48;-3274.10;69.90
40622;DHT22;26324;52.040;11.528;2024-01-10T10:04:17;-3274.20;69.40
40622;DHT22;26324;52.040;11.528;2024-01-10T10:06:47;-3274.30;69.50
40622;DHT22;26324;52.040;11.528;2024-01-10T10:09:16;-3274.20;69.30
40622;DHT22;26324;52.040;11.528;2024-01-10T10:11:43;-3274.50;68.30
40622;DHT22;26324;52.040;11.528;2024-01-10T10:14:15;-3274.50;68.60
40622;DHT22;26324;52.040;11.528;2024-01-10T10:16:43;-3274.70;68.90
40622;DHT22;26324;52.040;11.528;2024-01-10T10:19:11;-3274.70;67.40
40622;DHT22;26324;52.040;11.528;2024-01-10T10:21:47;-3275.00;69.00
40622;DHT22;26324;52.040;11.528;2024-01-10T10:24:15;-3275.10;67.60
40622;DHT22;26324;52.040;11.528;2024-01-10T10:26:45;-3275.40;65.80
40622;DHT22;26324;52.040;11.528;2024-01-10T10:29:17;-3275.50;65.20
40622;DHT22;26324;52.040;11.528;2024-01-10T10:31:48;-3275.80;64.30
40622;DHT22;26324;52.040;11.528;2024-01-10T10:34:20;-3275.80;63.40
40622;DHT22;26324;52.040;11.528;2024-01-10T10:36:48;-3276.00;62.50
40622;DHT22;26324;52.040;11.528;2024-01-10T10:39:17;-3276.30;61.20
40622;DHT22;26324;52.040;11.528;2024-01-10T10:41:47;-3276.50;58.70
40622;DHT22;26324;52.040;11.528;2024-01-10T10:44:18;-3276.60;58.00
40622;DHT22;26324;52.040;11.528;2024-01-10T10:46:50;-3276.70;58.30
40622;DHT22;26324;52.040;11.528;2024-01-10T10:49:35;0.00;57.10
40622;DHT22;26324;52.040;11.528;2024-01-10T10:52:03;0.30;56.70
40622;DHT22;26324;52.040;11.528;2024-01-10T10:54:31;0.40;55.60
40622;DHT22;26324;52.040;11.528;2024-01-10T10:57:01;0.70;54.90
40622;DHT22;26324;52.040;11.528;2024-01-10T10:59:36;0.90;54.00
40622;DHT22;26324;52.040;11.528;2024-01-10T11:02:05;1.00;53.60
40622;DHT22;26324;52.040;11.528;2024-01-10T11:04:38;1.10;52.70
40622;DHT22;26324;52.040;11.528;2024-01-10T11:07:07;1.30;52.30
40622;DHT22;26324;52.040;11.528;2024-01-10T11:09:36;1.40;52.10
40622;DHT22;26324;52.040;11.528;2024-01-10T11:12:23;1.50;51.50
40622;DHT22;26324;52.040;11.528;2024-01-10T11:23:47;2.00;49.30
40622;DHT22;26324;52.040;11.528;2024-01-10T11:26:16;2.10;50.30
40622;DHT22;26324;52.040;11.528;2024-01-10T11:28:44;2.30;48.40
40622;DHT22;26324;52.040;11.528;2024-01-10T11:31:14;2.40;47.40
40622;DHT22;26324;52.040;11.528;2024-01-10T11:33:42;2.40;47.50
40622;DHT22;26324;52.040;11.528;2024-01-10T11:36:16;2.70;46.80
40622;DHT22;26324;52.040;11.528;2024-01-10T11:46:57;4.30;42.40
40622;DHT22;26324;52.040;11.528;2024-01-10T11:49:25;4.60;42.20
40622;DHT22;26324;52.040;11.528;2024-01-10T11:51:56;4.70;40.50
40622;DHT22;26324;52.040;11.528;2024-01-10T11:57:14;4.70;41.60
40622;DHT22;26324;52.040;11.528;2024-01-10T11:59:45;4.90;41.60
40622;DHT22;26324;52.040;11.528;2024-01-10T12:02:15;5.10;41.10
40622;DHT22;26324;52.040;11.528;2024-01-10T12:19:39;7.10;37.60
40622;DHT22;26324;52.040;11.528;2024-01-10T12:24:43;7.10;37.30
40622;DHT22;26324;52.040;11.528;2024-01-10T12:27:16;7.30;37.30
40622;DHT22;26324;52.040;11.528;2024-01-10T12:29:47;7.50;37.10
40622;DHT22;26324;52.040;11.528;2024-01-10T12:32:17;7.80;36.60
40622;DHT22;26324;52.040;11.528;2024-01-10T12:34:46;7.90;35.90
40622;DHT22;26324;52.040;11.528;2024-01-10T12:37:13;8.00;37.80
40622;DHT22;26324;52.040;11.528;2024-01-10T12:39:41;8.20;37.60
40622;DHT22;26324;52.040;11.528;2024-01-10T12:42:08;8.30;36.80
40622;DHT22;26324;52.040;11.528;2024-01-10T12:44:36;8.40;36.80
40622;DHT22;26324;52.040;11.528;2024-01-10T12:47:04;8.50;35.90
40622;DHT22;26324;52.040;11.528;2024-01-10T12:49:32;8.50;36.70
40622;DHT22;26324;52.040;11.528;2024-01-10T12:51:59;8.60;35.40
40622;DHT22;26324;52.040;11.528;2024-01-10T12:54:26;8.60;34.80
40622;DHT22;26324;52.040;11.528;2024-01-10T12:56:54;8.70;35.50
40622;DHT22;26324;52.040;11.528;2024-01-10T12:59:22;8.70;34.70
40622;DHT22;26324;52.040;11.528;2024-01-10T13:01:50;9.00;35.90
40622;DHT22;26324;52.040;11.528;2024-01-10T13:04:18;9.10;33.80
40622;DHT22;26324;52.040;11.528;2024-01-10T13:06:46;9.30;34.70
40622;DHT22;26324;52.040;11.528;2024-01-10T13:09:14;9.50;32.80
40622;DHT22;26324;52.040;11.528;2024-01-10T13:11:41;9.80;32.70
40622;DHT22;26324;52.040;11.528;2024-01-10T13:14:09;10.10;32.10
40622;DHT22;26324;52.040;11.528;2024-01-10T13:16:37;10.20;31.70
40622;DHT22;26324;52.040;11.528;2024-01-10T13:19:20;10.50;31.10
40622;DHT22;26324;52.040;11.528;2024-01-10T13:21:47;10.60;31.00
40622;DHT22;26324;52.040;11.528;2024-01-10T13:24:15;10.90;30.40
40622;DHT22;26324;52.040;11.528;2024-01-10T13:26:42;11.00;30.70
40622;DHT22;26324;52.040;11.528;2024-01-10T13:29:09;11.00;29.90
40622;DHT22;26324;52.040;11.528;2024-01-10T13:31:37;11.20;30.00
40622;DHT22;26324;52.040;11.528;2024-01-10T13:34:04;11.20;29.80
40622;DHT22;26324;52.040;11.528;2024-01-10T13:36:32;11.30;30.00
40622;DHT22;26324;52.040;11.528;2024-01-10T13:38:59;11.40;30.20
40622;DHT22;26324;52.040;11.528;2024-01-10T13:41:51;11.20;29.20
40622;DHT22;26324;52.040;11.528;2024-01-10T13:44:18;11.10;31.00
40622;DHT22;26324;52.040;11.528;2024-01-10T13:46:46;11.10;29.20
40622;DHT22;26324;52.040;11.528;2024-01-10T13:49:16;11.00;30.80
40622;DHT22;26324;52.040;11.528;2024-01-10T13:51:44;11.10;29.60
40622;DHT22;26324;52.040;11.528;2024-01-10T13:54:11;11.10;29.70
40622;DHT22;26324;52.040;11.528;2024-01-10T13:56:39;11.10;29.20
40622;DHT22;26324;52.040;11.528;2024-01-10T13:59:07;11.20;29.00
40622;DHT22;26324;52.040;11.528;2024-01-10T14:01:35;11.30;29.80
40622;DHT22;26324;52.040;11.528;2024-01-10T14:04:02;11.10;28.50
40622;DHT22;26324;52.040;11.528;2024-01-10T14:06:29;11.10;28.90
40622;DHT22;26324;52.040;11.528;2024-01-10T14:08:57;11.00;29.20
40622;DHT22;26324;52.040;11.528;2024-01-10T14:11:24;10.90;28.80
40622;DHT22;26324;52.040;11.528;2024-01-10T14:13:54;10.80;29.30
40622;DHT22;26324;52.040;11.528;2024-01-10T14:16:21;10.40;29.50
40622;DHT22;26324;52.040;11.528;2024-01-10T14:18:48;9.90;30.20
40622;DHT22;26324;52.040;11.528;2024-01-10T14:21:16;9.40;30.70
40622;DHT22;26324;52.040;11.528;2024-01-10T14:23:43;8.40;32.10
40622;DHT22;26324;52.040;11.528;2024-01-10T14:26:11;7.60;33.80
40622;DHT22;26324;52.040;11.528;2024-01-10T14:28:38;6.80;35.00
40622;DHT22;26324;52.040;11.528;2024-01-10T14:31:05;6.00;36.30
40622;DHT22;26324;52.040;11.528;2024-01-10T14:36:16;4.60;39.80
40622;DHT22;26324;52.040;11.528;2024-01-10T14:38:44;4.20;40.10
40622;DHT22;26324;52.040;11.528;2024-01-10T14:41:11;3.40;42.20
40622;DHT22;26324;52.040;11.528;2024-01-10T14:43:39;2.70;43.90
40622;DHT22;26324;52.040;11.528;2024-01-10T14:46:06;2.10;45.60
40622;DHT22;26324;52.040;11.528;2024-01-10T14:48:34;1.50;47.80
40622;DHT22;26324;52.040;11.528;2024-01-10T14:51:02;1.10;48.90
40622;DHT22;26324;52.040;11.528;2024-01-10T14:53:31;0.50;50.60
40622;DHT22;26324;52.040;11.528;2024-01-10T14:55:59;0.00;52.20
40622;DHT22;26324;52.040;11.528;2024-01-10T14:58:26;-3276.40;53.40
40622;DHT22;26324;52.040;11.528;2024-01-10T15:00:54;-3276.00;55.90
40622;DHT22;26324;52.040;11.528;2024-01-10T15:03:21;-3275.80;56.50
40622;DHT22;26324;52.040;11.528;2024-01-10T15:05:53;-3275.80;57.50
40622;DHT22;26324;52.040;11.528;2024-01-10T15:08:21;-3275.60;58.60
40622;DHT22;26324;52.040;11.528;2024-01-10T15:10:48;-3275.30;59.50
40622;DHT22;26324;52.040;11.528;2024-01-10T15:13:16;-3275.10;59.70
40622;DHT22;26324;52.040;11.528;2024-01-10T15:15:45;-3275.00;60.60
40622;DHT22;26324;52.040;11.528;2024-01-10T15:18:12;-3275.00;61.20
40622;DHT22;26324;52.040;11.528;2024-01-10T15:20:40;-3274.90;61.60
40622;DHT22;26324;52.040;11.528;2024-01-10T15:23:08;-3274.80;62.50
40622;DHT22;26324;52.040;11.528;2024-01-10T15:25:36;-3274.60;63.20
40622;DHT22;26324;52.040;11.528;2024-01-10T15:28:03;-3274.50;64.00
40622;DHT22;26324;52.040;11.528;2024-01-10T15:30:31;-3274.40;64.70
40622;DHT22;26324;52.040;11.528;2024-01-10T15:33:14;-3274.30;65.20